createdAt,value
2022-10-11T00:01:45.077Z,97668.06
2022-10-11T00:06:47.397Z,97679.34
2022-10-11T00:11:49.148Z,97672.66
2022-10-11T00:16:51.106Z,97673.66
2022-10-11T00:21:52.730Z,97682.59
2022-10-11T00:26:54.371Z,97667.84
2022-10-11T00:31:56.479Z,97660.72
2022-10-11T00:36:58.196Z,97654.63
2022-10-11T00:41:59.937Z,97661.81
2022-10-11T00:47:12.275Z,97659.38
2022-10-11T00:52:22.973Z,97661.84
2022-10-11T00:57:29.674Z,97665.16
2022-10-11T01:02:31.647Z,97666.25
2022-10-11T01:07:34.270Z,97663.25
2022-10-11T01:12:37.138Z,97658.50
2022-10-11T01:17:44.890Z,97649.41
2022-10-11T01:23:30.903Z,97641.44
2022-10-11T01:28:51.355Z,97635.63
2022-10-11T01:34:07.183Z,97631.44
2022-10-11T01:39:20.781Z,97631.25
2022-10-11T01:44:25.622Z,97627.13
2022-10-11T01:49:27.269Z,97618.28
2022-10-11T01:54:56.567Z,97633.16
2022-10-11T02:00:03.815Z,97627.22
2022-10-11T02:05:27.600Z,97638.78
2022-10-11T02:10:33.030Z,97638.69
2022-10-11T02:15:39.333Z,97650.19
2022-10-11T02:20:42.809Z,97646.38
2022-10-11T02:25:45.889Z,97653.75
2022-10-11T02:30:50.734Z,97662.78
2022-10-11T02:36:01.079Z,97670.34
2022-10-11T02:41:15.755Z,97662.06
2022-10-11T02:46:18.084Z,97660.09
2022-10-11T02:51:19.794Z,97663.50
2022-10-11T02:56:21.582Z,97659.75
2022-10-11T03:01:23.375Z,97661.69
2022-10-11T03:06:25.118Z,97664.69
2022-10-11T03:11:26.833Z,97661.69
2022-10-11T03:16:28.538Z,97657.19
2022-10-11T03:21:30.266Z,97650.81
2022-10-11T03:26:31.951Z,97657.03
2022-10-11T03:31:33.670Z,97665.59
2022-10-11T03:36:35.402Z,97677.47
2022-10-11T03:41:37.114Z,97666.63
2022-10-11T03:46:39.209Z,97672.69
2022-10-11T03:51:41.027Z,97672.16
2022-10-11T03:56:42.844Z,97678.50
2022-10-11T04:01:44.656Z,97684.50
2022-10-11T04:06:46.393Z,97693.56
2022-10-11T04:11:48.304Z,97690.84
2022-10-11T04:16:50.060Z,97696.69
2022-10-11T04:21:51.946Z,97705.53
2022-10-11T04:26:53.739Z,97697.03
2022-10-11T04:31:55.472Z,97705.25
2022-10-11T04:36:57.197Z,97710.72
2022-10-11T04:41:58.904Z,97718.97
2022-10-11T04:47:01.238Z,97715.44
2022-10-11T04:52:03.218Z,97720.41
2022-10-11T04:57:04.890Z,97713.75
2022-10-11T05:02:06.662Z,97718.69
2022-10-11T05:07:08.506Z,97725.56
2022-10-11T05:12:10.580Z,97733.81
2022-10-11T05:17:12.339Z,97729.16
2022-10-11T05:22:14.118Z,97735.25
2022-10-11T05:27:15.807Z,97736.00
2022-10-11T05:32:17.677Z,97741.28
2022-10-11T05:37:20.308Z,97747.38
2022-10-11T05:42:22.048Z,97748.50
2022-10-11T05:47:23.779Z,97759.50
2022-10-11T05:52:25.727Z,97757.28
2022-10-11T05:57:27.412Z,97767.69
2022-10-11T06:02:29.098Z,97769.84
2022-10-11T06:07:30.974Z,97775.34
2022-10-11T06:12:33.420Z,97776.94
2022-10-11T06:17:35.265Z,97783.56
2022-10-11T06:22:36.983Z,97787.44
2022-10-11T06:27:38.723Z,97790.47
2022-10-11T06:32:40.486Z,97804.78
2022-10-11T06:37:42.278Z,97798.50
2022-10-11T06:42:48.750Z,97801.00
2022-10-11T06:47:50.515Z,97807.34
2022-10-11T06:52:52.219Z,97811.22
2022-10-11T06:57:53.948Z,97824.19
2022-10-11T07:02:55.673Z,97819.53
2022-10-11T07:07:57.374Z,97824.50
2022-10-11T07:12:59.084Z,97831.09
2022-10-11T07:18:00.852Z,97838.25
2022-10-11T07:23:02.664Z,97840.22
2022-10-11T07:28:04.785Z,97843.78
2022-10-11T07:33:06.625Z,97849.31
2022-10-11T07:38:08.478Z,97839.94
2022-10-11T07:43:12.015Z,97855.38
2022-10-11T07:48:14.135Z,97851.25
2022-10-11T07:53:16.015Z,97847.13
2022-10-11T07:58:17.728Z,97847.66
2022-10-11T08:03:19.485Z,97853.19
2022-10-11T08:08:21.208Z,97858.13
2022-10-11T08:13:23.698Z,97854.81
2022-10-11T08:18:25.487Z,97852.31
2022-10-11T08:23:27.122Z,97854.75
2022-10-11T08:28:28.872Z,97851.13
2022-10-11T08:33:31.195Z,97859.94
2022-10-11T08:38:33.503Z,97859.09
2022-10-11T08:43:44.661Z,97869.84
2022-10-11T08:48:49.353Z,97867.03
2022-10-11T08:54:28.774Z,97869.00
2022-10-11T08:59:39.407Z,97872.88
2022-10-11T09:04:41.353Z,97871.50
2022-10-11T09:10:24.676Z,97866.47
2022-10-11T09:15:48.557Z,97869.47
2022-10-11T09:20:59.422Z,97873.31
2022-10-11T09:26:01.245Z,97874.94
2022-10-11T09:31:03.089Z,97875.97
2022-10-11T09:36:24.647Z,97875.72
2022-10-11T09:41:46.834Z,97871.25
2022-10-11T09:46:50.954Z,97868.13
2022-10-11T09:51:58.705Z,97870.28
2022-10-11T09:57:00.547Z,97870.19
2022-10-11T10:02:14.537Z,97869.53
2022-10-11T10:07:16.322Z,97865.66
2022-10-11T10:12:28.547Z,97871.19
2022-10-11T10:17:30.771Z,97868.38
2022-10-11T10:22:35.172Z,97867.03
2022-10-11T10:27:37.017Z,97878.56
2022-10-11T10:33:04.467Z,97877.38
2022-10-11T10:38:26.228Z,97878.63
2022-10-11T10:43:37.579Z,97874.78
2022-10-11T10:54:36.662Z,97873.81
2022-10-11T10:59:43.251Z,97877.13
2022-10-11T11:04:54.432Z,97877.56
2022-10-11T11:10:15.469Z,97870.47
2022-10-11T11:15:46.622Z,97872.78
2022-10-11T11:21:19.457Z,97877.53
2022-10-11T11:26:45.294Z,97864.06
2022-10-11T11:32:13.348Z,97867.41
2022-10-11T11:37:23.133Z,97863.78
2022-10-11T11:42:54.161Z,97864.00
2022-10-11T11:48:06.725Z,97850.16
2022-10-11T11:53:16.470Z,97857.88
2022-10-11T11:58:50.573Z,97851.91
2022-10-11T12:03:55.978Z,97856.56
2022-10-11T12:09:22.348Z,97860.94
2022-10-11T12:14:31.940Z,97855.94
2022-10-11T12:19:34.677Z,97856.44
2022-10-11T12:24:59.849Z,97854.19
2022-10-11T12:30:01.688Z,97848.06
2022-10-11T12:35:31.728Z,97853.22
2022-10-11T12:40:42.508Z,97844.56
2022-10-11T12:45:47.979Z,97844.56
2022-10-11T12:51:20.746Z,97834.56
2022-10-11T12:56:25.810Z,97825.59
2022-10-11T13:01:34.829Z,97836.66
2022-10-11T13:06:46.225Z,97828.16
2022-10-11T13:11:52.398Z,97829.25
2022-10-11T13:17:07.106Z,97823.38
2022-10-11T13:22:21.294Z,97829.16
2022-10-11T13:27:27.773Z,97832.97
2022-10-11T13:32:31.572Z,97828.69
2022-10-11T13:37:51.743Z,97819.03
2022-10-11T13:42:55.071Z,97813.28
2022-10-11T13:47:57.438Z,97810.03
2022-10-11T13:53:09.631Z,97813.78
2022-10-11T13:58:18.971Z,97811.69
2022-10-11T14:03:24.654Z,97808.53
2022-10-11T14:08:44.589Z,97796.19
2022-10-11T14:13:49.765Z,97803.13
2022-10-11T14:19:08.046Z,97794.53
2022-10-11T14:24:12.567Z,97802.38
2022-10-11T14:29:26.218Z,97804.66
2022-10-11T14:34:28.852Z,97814.06
2022-10-11T14:39:32.514Z,97814.06
2022-10-11T14:44:35.534Z,97813.03
2022-10-11T14:49:37.709Z,97813.06
2022-10-11T14:54:41.050Z,97817.59
2022-10-11T14:59:43.984Z,97813.81
2022-10-11T15:04:45.838Z,97815.00
2022-10-11T15:09:47.462Z,97816.75
2022-10-11T15:14:49.204Z,97827.63
2022-10-11T15:19:50.978Z,97824.06
2022-10-11T15:24:52.650Z,97818.00
2022-10-11T15:29:54.417Z,97821.28
2022-10-11T15:34:56.220Z,97816.34
2022-10-11T15:39:57.876Z,97817.00
2022-10-11T15:44:59.630Z,97810.63
2022-10-11T15:50:01.307Z,97814.84
2022-10-11T15:55:03.038Z,97808.22
2022-10-11T16:00:05.170Z,97808.84
2022-10-11T16:05:13.501Z,97805.13
2022-10-11T16:10:15.375Z,97798.00
2022-10-11T16:15:17.358Z,97798.34
2022-10-11T16:20:22.348Z,97798.09
2022-10-11T16:25:24.560Z,97794.22
2022-10-11T16:30:27.465Z,97798.09
2022-10-11T16:35:32.556Z,97798.78
2022-10-11T16:40:37.627Z,97810.97
2022-10-11T16:45:39.490Z,97825.06
2022-10-11T16:50:41.342Z,97830.44
2022-10-11T16:55:42.951Z,97837.06
2022-10-11T17:00:44.728Z,97840.97
2022-10-11T17:05:46.605Z,97840.44
2022-10-11T17:10:53.515Z,97847.06
2022-10-11T17:15:55.215Z,97847.38
2022-10-11T17:21:06.100Z,97847.66
2022-10-11T17:26:11.569Z,97846.81
2022-10-11T17:31:13.523Z,97841.00
2022-10-11T17:36:36.337Z,97830.81
2022-10-11T17:41:38.482Z,97843.72
2022-10-11T17:46:40.150Z,97844.84
2022-10-11T17:51:42.513Z,97837.13
2022-10-11T17:56:44.207Z,97839.03
2022-10-11T18:01:46.016Z,97844.50
2022-10-11T18:06:49.484Z,97842.06
2022-10-11T18:11:51.608Z,97838.75
2022-10-11T18:16:53.336Z,97844.72
2022-10-11T18:21:55.393Z,97840.28
2022-10-11T18:26:57.103Z,97834.78
2022-10-11T18:31:58.830Z,97827.13
2022-10-11T18:37:00.635Z,97830.38
2022-10-11T18:42:04.564Z,97828.63
2022-10-11T18:47:06.339Z,97827.47
2022-10-11T18:52:08.450Z,97825.25
2022-10-11T18:57:10.152Z,97827.38
2022-10-11T19:02:12.604Z,97832.88
2022-10-11T19:07:14.324Z,97825.50
2022-10-11T19:12:16.599Z,97834.03
2022-10-11T19:17:22.504Z,97824.75
2022-10-11T19:22:24.240Z,97833.03
2022-10-11T19:27:26.055Z,97832.41
2022-10-11T19:32:27.939Z,97835.66
2022-10-11T19:37:30.170Z,97828.00
2022-10-11T19:42:32.304Z,97835.47
2022-10-11T19:47:34.245Z,97836.34
2022-10-11T19:52:36.180Z,97840.25
2022-10-11T19:57:37.887Z,97839.44
2022-10-11T20:02:39.776Z,97833.69
2022-10-11T20:07:41.494Z,97843.81
2022-10-11T20:12:45.933Z,97843.00
2022-10-11T20:17:48.228Z,97847.41
2022-10-11T20:22:50.043Z,97850.69
2022-10-11T20:27:51.858Z,97847.69
2022-10-11T20:32:53.563Z,97845.72
2022-10-11T20:37:55.257Z,97848.22
2022-10-11T20:42:57.028Z,97849.63
2022-10-11T20:47:58.842Z,97847.63
2022-10-11T20:53:00.485Z,97848.41
2022-10-11T20:58:02.065Z,97854.47
2022-10-11T21:03:03.818Z,97845.19
2022-10-11T21:08:05.793Z,97844.59
2022-10-11T21:13:07.536Z,97850.06
2022-10-11T21:18:09.289Z,97839.63
2022-10-11T21:23:13.407Z,97839.97
2022-10-11T21:28:15.249Z,97837.81
2022-10-11T21:33:17.027Z,97834.78
2022-10-11T21:38:18.731Z,97836.44
2022-10-11T21:43:20.537Z,97826.56
2022-10-11T21:48:22.229Z,97835.97
2022-10-11T21:53:23.887Z,97831.53
2022-10-11T21:58:25.815Z,97832.09
2022-10-11T22:03:27.541Z,97837.06
2022-10-11T22:08:30.324Z,97834.88
2022-10-11T22:13:33.712Z,97832.16
2022-10-11T22:18:36.347Z,97831.88
2022-10-11T22:23:38.070Z,97842.63
2022-10-11T22:28:40.757Z,97838.50
2022-10-11T22:33:42.830Z,97831.56
2022-10-11T22:38:45.510Z,97831.00
2022-10-11T22:43:47.206Z,97825.50
2022-10-11T22:48:48.979Z,97831.84
2022-10-11T22:53:50.869Z,97831.81
2022-10-11T22:58:52.534Z,97824.97
2022-10-11T23:03:54.416Z,97828.78
2022-10-11T23:08:56.149Z,97837.59
2022-10-11T23:13:57.872Z,97827.13
2022-10-11T23:18:59.645Z,97829.59
2022-10-11T23:24:01.423Z,97828.50
2022-10-11T23:29:03.297Z,97831.50
2022-10-11T23:34:05.002Z,97833.94
2022-10-11T23:39:06.680Z,97835.28
2022-10-11T23:44:08.467Z,97833.06
2022-10-11T23:49:10.163Z,97842.38
2022-10-11T23:54:11.947Z,97834.66
2022-10-11T23:59:13.678Z,97835.81
